createdAt,value
2019-06-10T00:01:51.248Z,2.20
2019-06-10T00:04:22.540Z,2.50
2019-06-10T00:06:55.558Z,2.80
2019-06-10T00:09:27.579Z,2.80
2019-06-10T00:12:02.775Z,2.20
2019-06-10T00:14:33.064Z,2.67
2019-06-10T00:17:06.354Z,3.10
2019-06-10T00:19:40.735Z,2.57
2019-06-10T00:22:12.054Z,3.00
2019-06-10T00:24:43.793Z,3.27
2019-06-10T00:27:15.500Z,2.33
2019-06-10T00:29:47.223Z,2.67
2019-06-10T00:32:21.318Z,2.80
2019-06-10T00:34:53.040Z,2.87
2019-06-10T00:37:24.748Z,3.20
2019-06-10T00:39:56.629Z,2.63
2019-06-10T00:42:28.316Z,3.37
2019-06-10T00:45:02.673Z,3.30
2019-06-10T00:47:33.679Z,3.13
2019-06-10T00:50:08.188Z,2.87
2019-06-10T00:52:42.210Z,2.90
2019-06-10T00:55:13.910Z,2.80
2019-06-10T00:57:45.752Z,3.13
2019-06-10T01:00:25.163Z,3.67
2019-06-10T01:02:51.809Z,4.47
2019-06-10T01:05:23.742Z,3.10
2019-06-10T01:07:55.553Z,3.57
2019-06-10T01:10:27.480Z,3.00
2019-06-10T01:13:00.807Z,3.20
2019-06-10T01:15:32.805Z,3.00
2019-06-10T01:18:05.933Z,3.17
2019-06-10T01:20:37.836Z,4.47
2019-06-10T01:23:11.920Z,4.23
2019-06-10T01:25:43.147Z,4.70
2019-06-10T01:28:16.880Z,4.40
2019-06-10T01:30:48.491Z,5.33
2019-06-10T01:33:21.223Z,5.07
2019-06-10T01:35:53.165Z,5.57
2019-06-10T01:38:24.890Z,5.40
2019-06-10T01:40:56.792Z,4.93
2019-06-10T01:43:28.485Z,4.90
2019-06-10T01:46:01.569Z,5.43
2019-06-10T01:48:43.933Z,5.27
2019-06-10T01:51:07.186Z,5.47
2019-06-10T01:53:41.417Z,5.00
2019-06-10T01:56:14.249Z,4.37
2019-06-10T01:58:46.171Z,5.17
2019-06-10T02:01:24.416Z,5.70
2019-06-10T02:03:56.124Z,4.70
2019-06-10T02:06:27.961Z,5.43
2019-06-10T02:09:05.413Z,5.97
2019-06-10T02:11:37.215Z,5.17
2019-06-10T02:14:10.103Z,4.87
2019-06-10T02:16:42.576Z,5.00
2019-06-10T02:19:15.761Z,5.03
2019-06-10T02:21:47.995Z,4.33
2019-06-10T02:24:22.019Z,4.83
2019-06-10T02:26:53.329Z,4.93
2019-06-10T02:29:25.038Z,5.20
2019-06-10T02:31:56.754Z,5.80
2019-06-10T02:34:28.614Z,5.13
2019-06-10T02:37:04.347Z,5.13
2019-06-10T02:39:38.745Z,4.93
2019-06-10T02:42:18.959Z,5.23
2019-06-10T02:44:47.453Z,5.40
2019-06-10T02:47:23.764Z,4.73
2019-06-10T02:50:02.432Z,4.97
2019-06-10T02:52:33.020Z,5.03
2019-06-10T02:55:03.743Z,5.57
2019-06-10T02:57:39.689Z,4.77
2019-06-10T03:00:19.843Z,4.83
2019-06-10T03:02:45.032Z,5.50
2019-06-10T03:05:19.417Z,5.37
2019-06-10T03:07:53.217Z,5.20
2019-06-10T03:10:29.948Z,5.10
2019-06-10T03:12:57.833Z,4.63
2019-06-10T03:15:32.049Z,4.83
2019-06-10T03:18:03.756Z,4.30
2019-06-10T03:20:35.452Z,3.90
2019-06-10T03:23:07.176Z,5.10
2019-06-10T03:25:38.881Z,5.60
2019-06-10T03:28:12.074Z,5.43
2019-06-10T03:30:52.784Z,4.57
2019-06-10T03:33:18.289Z,5.17
2019-06-10T03:35:52.672Z,5.80
2019-06-10T03:38:26.994Z,6.37
2019-06-10T03:41:12.268Z,7.17
2019-06-10T03:43:54.054Z,6.70
2019-06-10T03:46:35.746Z,6.03
2019-06-10T03:49:07.606Z,6.57
2019-06-10T03:51:39.308Z,6.03
2019-06-10T03:54:13.071Z,4.67
2019-06-10T03:56:44.653Z,5.40
2019-06-10T03:59:17.180Z,5.20
2019-06-10T04:01:48.966Z,5.33
2019-06-10T04:04:23.456Z,6.63
2019-06-10T04:06:54.287Z,7.00
2019-06-10T04:09:27.530Z,6.70
2019-06-10T04:12:01.919Z,4.80
2019-06-10T04:14:33.439Z,4.23
2019-06-10T04:17:05.324Z,5.23
2019-06-10T04:19:37.048Z,3.43
2019-06-10T04:22:08.869Z,4.10
2019-06-10T04:24:42.989Z,3.20
2019-06-10T04:27:14.215Z,3.37
2019-06-10T04:29:46.010Z,3.67
2019-06-10T04:32:18.209Z,3.40
2019-06-10T04:34:50.032Z,3.13
2019-06-10T04:37:23.415Z,3.87
2019-06-10T04:39:57.481Z,3.63
2019-06-10T04:42:29.082Z,4.20
2019-06-10T04:45:02.948Z,4.00
2019-06-10T04:47:34.472Z,4.10
2019-06-10T04:50:20.792Z,4.13
2019-06-10T04:52:42.905Z,4.07
2019-06-10T04:55:14.389Z,4.30
2019-06-10T04:57:46.219Z,4.67
2019-06-10T05:00:19.254Z,4.83
2019-06-10T05:02:52.212Z,5.40
2019-06-10T05:05:26.818Z,5.17
2019-06-10T05:07:57.857Z,4.87
2019-06-10T05:10:29.906Z,5.33
2019-06-10T05:13:03.114Z,5.47
2019-06-10T05:15:35.219Z,5.30
2019-06-10T05:18:07.057Z,5.37
2019-06-10T05:20:52.041Z,5.80
2019-06-10T05:23:12.701Z,5.70
2019-06-10T05:25:44.567Z,5.23
2019-06-10T05:28:16.268Z,5.30
2019-06-10T05:30:47.998Z,6.07
2019-06-10T05:33:20.787Z,6.17
2019-06-10T05:35:53.436Z,6.00
2019-06-10T05:38:26.848Z,6.33
2019-06-10T05:40:58.820Z,6.40
2019-06-10T05:43:33.071Z,6.33
2019-06-10T05:46:04.330Z,6.33
2019-06-10T05:48:36.104Z,6.37
2019-06-10T05:51:07.808Z,6.57
2019-06-10T05:53:42.035Z,6.00
2019-06-10T05:56:13.124Z,6.00
2019-06-10T05:58:44.832Z,6.10
2019-06-10T06:01:16.546Z,7.23
2019-06-10T06:03:48.338Z,6.00
2019-06-10T06:06:20.041Z,6.20
2019-06-10T06:08:53.374Z,6.63
2019-06-10T06:11:25.444Z,5.67
2019-06-10T06:13:57.136Z,6.07
2019-06-10T06:16:30.378Z,6.23
2019-06-10T06:19:03.423Z,6.33
2019-06-10T06:21:42.112Z,5.93
2019-06-10T06:24:08.847Z,6.03
2019-06-10T06:26:43.114Z,5.90
2019-06-10T06:29:14.321Z,5.73
2019-06-10T06:31:46.055Z,6.43
2019-06-10T06:34:17.839Z,6.70
2019-06-10T06:36:49.573Z,5.10
2019-06-10T06:39:21.381Z,5.70
2019-06-10T06:41:53.101Z,5.97
2019-06-10T06:44:24.804Z,5.83
2019-06-10T06:46:56.538Z,5.70
2019-06-10T06:49:28.240Z,5.47
2019-06-10T06:52:02.792Z,5.33
2019-06-10T06:54:36.076Z,5.73
2019-06-10T06:57:07.321Z,6.27
2019-06-10T06:59:40.281Z,6.17
2019-06-10T07:02:12.768Z,5.57
2019-06-10T07:04:44.975Z,5.77
2019-06-10T07:07:18.829Z,6.10
2019-06-10T07:09:52.667Z,5.00
2019-06-10T07:12:24.572Z,5.27
2019-06-10T07:14:57.165Z,5.57
2019-06-10T07:17:28.904Z,6.40
2019-06-10T07:20:03.146Z,5.47
2019-06-10T07:22:36.878Z,5.78
2019-06-10T07:25:08.033Z,4.83
2019-06-10T07:27:42.859Z,5.10
2019-06-10T07:30:15.172Z,4.60
2019-06-10T07:32:47.569Z,5.42
2019-06-10T07:35:19.392Z,4.63
2019-06-10T07:37:52.293Z,5.03
2019-06-10T07:40:24.224Z,4.62
2019-06-10T07:42:55.966Z,5.08
2019-06-10T07:45:27.676Z,4.28
2019-06-10T07:47:59.414Z,4.70
2019-06-10T07:50:33.347Z,4.17
2019-06-10T07:53:04.889Z,4.35
2019-06-10T07:55:37.846Z,5.05
2019-06-10T07:58:09.713Z,5.65
2019-06-10T08:00:46.493Z,4.35
2019-06-10T08:03:15.157Z,4.67
2019-06-10T08:05:47.193Z,4.23
2019-06-10T08:08:19.013Z,5.10
2019-06-10T08:10:52.891Z,3.90
2019-06-10T08:13:24.391Z,4.85
2019-06-10T08:15:56.305Z,4.47
2019-06-10T08:18:28.058Z,4.85
2019-06-10T08:20:59.813Z,4.33
2019-06-10T08:23:32.886Z,4.90
2019-06-10T08:26:04.885Z,4.87
2019-06-10T08:28:37.556Z,4.85
2019-06-10T08:31:09.312Z,4.40
2019-06-10T08:33:45.343Z,5.35
2019-06-10T08:36:14.637Z,4.62
2019-06-10T08:38:48.642Z,4.87
2019-06-10T08:41:22.829Z,5.20
2019-06-10T08:43:53.946Z,5.42
2019-06-10T08:46:25.646Z,5.00
2019-06-10T08:48:57.452Z,4.62
2019-06-10T08:51:29.161Z,4.72
2019-06-10T08:54:02.435Z,4.62
2019-06-10T08:56:34.398Z,4.70
2019-06-10T08:59:06.246Z,5.67
2019-06-10T09:01:39.473Z,4.35
2019-06-10T09:04:13.245Z,5.22
2019-06-10T09:06:47.996Z,5.47
2019-06-10T09:09:18.819Z,5.05
2019-06-10T09:11:51.971Z,5.53
2019-06-10T09:14:24.446Z,6.97
2019-06-10T09:16:56.404Z,5.45
2019-06-10T09:19:28.150Z,4.80
2019-06-10T09:21:59.858Z,5.42
2019-06-10T09:24:32.829Z,4.60
2019-06-10T09:27:04.728Z,5.30
2019-06-10T09:29:36.569Z,4.85
2019-06-10T09:32:08.261Z,4.85
2019-06-10T09:34:41.517Z,4.85
2019-06-10T09:37:13.608Z,5.22
2019-06-10T09:39:51.834Z,4.80
2019-06-10T09:42:19.126Z,4.37
2019-06-10T09:44:55.379Z,4.83
2019-06-10T09:47:25.813Z,5.70
2019-06-10T09:49:58.025Z,5.03
2019-06-10T09:52:29.737Z,4.85
2019-06-10T09:55:02.736Z,5.00
2019-06-10T09:57:35.363Z,5.35
2019-06-10T10:00:09.405Z,4.67
2019-06-10T10:02:44.922Z,4.80
2019-06-10T10:05:14.984Z,4.47
2019-06-10T10:07:49.979Z,5.53
2019-06-10T10:10:26.861Z,4.45
2019-06-10T10:12:58.556Z,4.55
2019-06-10T10:15:33.857Z,4.90
2019-06-10T10:18:04.711Z,4.78
2019-06-10T10:20:36.440Z,4.42
2019-06-10T10:23:08.259Z,4.60
2019-06-10T10:25:40.076Z,4.85
2019-06-10T10:28:13.432Z,4.58
2019-06-10T10:30:48.726Z,5.30
2019-06-10T10:33:19.159Z,4.95
2019-06-10T10:35:50.994Z,5.05
2019-06-10T10:38:23.053Z,4.80
2019-06-10T10:40:58.487Z,4.85
2019-06-10T10:43:34.142Z,5.00
2019-06-10T10:46:05.675Z,4.58
2019-06-10T10:48:36.210Z,4.85
2019-06-10T10:51:07.923Z,5.45
2019-06-10T10:53:39.739Z,4.95
2019-06-10T10:56:12.955Z,4.67
2019-06-10T10:58:45.890Z,4.33
2019-06-10T11:01:18.689Z,4.50
2019-06-10T11:03:52.533Z,4.70
2019-06-10T11:06:24.028Z,5.28
2019-06-10T11:08:57.731Z,4.17
2019-06-10T11:11:30.052Z,4.53
2019-06-10T11:14:03.494Z,4.75
2019-06-10T11:16:35.492Z,5.10
2019-06-10T11:19:07.209Z,4.55
2019-06-10T11:21:38.967Z,4.97
2019-06-10T11:24:14.186Z,4.25
2019-06-10T11:26:45.577Z,4.45
2019-06-10T11:29:17.609Z,4.85
2019-06-10T11:31:50.461Z,4.37
2019-06-10T11:34:22.965Z,5.15
2019-06-10T11:36:56.301Z,4.35
2019-06-10T11:39:28.240Z,3.95
2019-06-10T11:42:02.230Z,3.83
2019-06-10T11:44:34.065Z,3.87
2019-06-10T11:47:06.021Z,4.15
2019-06-10T11:49:37.808Z,4.20
2019-06-10T11:52:09.526Z,3.95
2019-06-10T11:54:51.692Z,4.50
2019-06-10T11:57:14.925Z,4.20
2019-06-10T11:59:46.636Z,4.15
2019-06-10T12:02:18.494Z,3.98
2019-06-10T12:04:52.799Z,3.90
2019-06-10T12:07:23.912Z,4.30
2019-06-10T12:09:58.802Z,4.20
2019-06-10T12:12:29.355Z,4.33
2019-06-10T12:15:01.508Z,3.80
2019-06-10T12:17:43.162Z,3.87
2019-06-10T12:20:08.523Z,3.62
2019-06-10T12:22:42.410Z,3.85
2019-06-10T12:25:31.602Z,3.37
2019-06-10T12:27:50.411Z,3.95
2019-06-10T12:30:22.554Z,3.83
2019-06-10T12:32:57.458Z,3.90
2019-06-10T12:35:28.030Z,3.62
2019-06-10T12:38:02.326Z,4.40
2019-06-10T12:40:33.506Z,3.60
2019-06-10T12:43:07.079Z,3.65
2019-06-10T12:45:38.847Z,4.25
2019-06-10T12:48:13.150Z,4.22
2019-06-10T12:50:44.165Z,4.20
2019-06-10T12:53:16.248Z,3.85
2019-06-10T12:55:48.196Z,3.70
2019-06-10T12:58:22.150Z,3.52
2019-06-10T13:00:54.347Z,3.45
2019-06-10T13:03:27.352Z,3.65
2019-06-10T13:06:04.700Z,3.67
2019-06-10T13:08:35.215Z,3.52
2019-06-10T13:11:08.198Z,3.25
2019-06-10T13:13:42.176Z,3.30
2019-06-10T13:16:14.489Z,3.35
2019-06-10T13:18:46.472Z,4.03
2019-06-10T13:21:18.202Z,3.22
2019-06-10T13:23:50.025Z,3.98
2019-06-10T13:26:23.163Z,3.62
2019-06-10T13:28:55.282Z,3.35
2019-06-10T13:31:27.295Z,3.00
2019-06-10T13:34:04.236Z,3.37
2019-06-10T13:36:33.157Z,3.27
2019-06-10T13:39:08.609Z,3.70
2019-06-10T13:41:40.208Z,3.87
2019-06-10T13:44:15.382Z,4.08
2019-06-10T13:46:45.600Z,3.52
2019-06-10T13:49:17.345Z,4.33
2019-06-10T13:51:49.068Z,3.52
2019-06-10T13:54:22.593Z,3.50
2019-06-10T13:56:54.499Z,3.40
2019-06-10T13:59:26.247Z,4.35
2019-06-10T14:01:58.069Z,3.83
2019-06-10T14:04:29.787Z,3.35
2019-06-10T14:07:04.518Z,3.37
2019-06-10T14:09:37.408Z,3.60
2019-06-10T14:12:17.591Z,3.72
2019-06-10T14:14:48.282Z,3.30
2019-06-10T14:17:22.724Z,3.25
2019-06-10T14:19:53.828Z,3.65
2019-06-10T14:22:25.536Z,3.65
2019-06-10T14:24:57.253Z,3.12
2019-06-10T14:27:28.957Z,3.55
2019-06-10T14:30:02.837Z,4.97
2019-06-10T14:32:34.322Z,4.83
2019-06-10T14:35:08.491Z,5.42
2019-06-10T14:37:39.748Z,6.45
2019-06-10T14:40:18.521Z,5.12
2019-06-10T14:42:45.184Z,6.40
2019-06-10T14:45:17.212Z,5.62
2019-06-10T14:47:48.920Z,5.50
2019-06-10T14:50:23.015Z,5.12
2019-06-10T14:52:54.459Z,4.80
2019-06-10T14:55:26.196Z,5.40
2019-06-10T14:57:57.901Z,4.42
2019-06-10T15:00:29.636Z,5.95
2019-06-10T15:03:04.655Z,4.83
2019-06-10T15:05:35.281Z,5.08
2019-06-10T15:08:07.292Z,4.95
2019-06-10T15:10:39.276Z,4.65
2019-06-10T15:13:11.816Z,5.10
2019-06-10T15:15:44.524Z,5.15
2019-06-10T15:18:18.129Z,4.47
2019-06-10T15:20:50.131Z,4.62
2019-06-10T15:23:23.439Z,4.80
2019-06-10T15:25:57.161Z,5.10
2019-06-10T15:28:29.208Z,4.83
2019-06-10T15:31:03.031Z,5.67
2019-06-10T15:33:34.757Z,5.80
2019-06-10T15:36:06.599Z,5.78
2019-06-10T15:38:38.326Z,5.10
2019-06-10T15:41:12.986Z,6.42
2019-06-10T15:43:43.672Z,5.12
2019-06-10T15:46:16.287Z,5.70
2019-06-10T15:48:49.162Z,6.55
2019-06-10T15:51:25.151Z,6.12
2019-06-10T15:53:54.521Z,5.78
2019-06-10T15:56:37.553Z,6.85
2019-06-10T15:58:59.840Z,6.17
2019-06-10T16:01:32.666Z,6.65
2019-06-10T16:04:04.616Z,6.78
2019-06-10T16:06:36.421Z,6.70
2019-06-10T16:09:08.268Z,5.92
2019-06-10T16:11:41.095Z,6.90
2019-06-10T16:14:14.770Z,6.60
2019-06-10T16:16:46.654Z,6.83
2019-06-10T16:19:19.613Z,7.05
2019-06-10T16:21:52.474Z,8.00
2019-06-10T16:24:27.370Z,7.75
2019-06-10T16:26:58.040Z,8.25
2019-06-10T16:29:29.836Z,7.35
2019-06-10T16:32:02.514Z,7.80
2019-06-10T16:34:34.604Z,7.65
2019-06-10T16:37:06.346Z,7.78
2019-06-10T16:39:38.154Z,7.12
2019-06-10T16:42:12.176Z,8.15
2019-06-10T16:44:43.600Z,8.20
2019-06-10T16:47:15.342Z,7.62
2019-06-10T16:49:47.065Z,8.58
2019-06-10T16:52:19.512Z,8.53
2019-06-10T16:54:52.638Z,9.85
2019-06-10T16:57:25.965Z,9.13
2019-06-10T16:59:58.149Z,8.93
2019-06-10T17:02:30.054Z,9.13
2019-06-10T17:05:04.017Z,7.95
2019-06-10T17:07:35.729Z,8.38
2019-06-10T17:10:08.853Z,8.38
2019-06-10T17:12:42.553Z,9.43
2019-06-10T17:15:14.691Z,8.60
2019-06-10T17:17:46.419Z,7.97
2019-06-10T17:20:18.577Z,9.10
2019-06-10T17:22:52.394Z,8.83
2019-06-10T17:25:25.418Z,8.73
2019-06-10T17:27:57.785Z,8.48
2019-06-10T17:30:30.021Z,9.48
2019-06-10T17:33:02.353Z,8.60
2019-06-10T17:35:36.862Z,8.83
2019-06-10T17:38:07.885Z,9.88
2019-06-10T17:40:39.800Z,8.65
2019-06-10T17:43:11.536Z,8.78
2019-06-10T17:45:43.457Z,9.10
2019-06-10T17:48:15.303Z,8.83
2019-06-10T17:50:47.109Z,8.73
2019-06-10T17:53:18.943Z,8.83
2019-06-10T17:55:50.637Z,9.38
2019-06-10T17:58:37.612Z,9.53
2019-06-10T18:00:56.081Z,9.68
2019-06-10T18:03:28.161Z,9.55
2019-06-10T18:06:02.769Z,10.13
2019-06-10T18:08:36.416Z,9.38
2019-06-10T18:11:08.328Z,8.90
2019-06-10T18:13:42.390Z,9.48
2019-06-10T18:16:13.893Z,9.25
2019-06-10T18:18:45.662Z,9.60
2019-06-10T18:21:17.504Z,9.80
2019-06-10T18:23:49.346Z,8.95
2019-06-10T18:26:23.057Z,9.68
2019-06-10T18:29:04.456Z,9.25
2019-06-10T18:31:29.487Z,9.13
2019-06-10T18:34:02.489Z,9.28
2019-06-10T18:36:35.867Z,9.85
2019-06-10T18:39:08.236Z,10.25
2019-06-10T18:41:41.840Z,10.23
2019-06-10T18:44:22.026Z,9.78
2019-06-10T18:46:47.568Z,10.05
2019-06-10T18:49:19.301Z,9.75
2019-06-10T18:51:53.200Z,9.68
2019-06-10T18:54:24.894Z,10.23
2019-06-10T18:56:56.816Z,10.40
2019-06-10T18:59:29.853Z,9.65
2019-06-10T19:02:06.087Z,10.30
2019-06-10T19:04:37.943Z,10.75
2019-06-10T19:07:09.915Z,10.68
2019-06-10T19:09:47.856Z,10.78
2019-06-10T19:12:15.472Z,10.58
2019-06-10T19:14:47.233Z,10.45
2019-06-10T19:17:19.079Z,9.95
2019-06-10T19:19:53.095Z,10.20
2019-06-10T19:22:24.653Z,9.85
2019-06-10T19:24:56.439Z,9.70
2019-06-10T19:27:28.166Z,9.85
2019-06-10T19:29:59.913Z,10.35
2019-06-10T19:32:34.995Z,10.90
2019-06-10T19:35:06.958Z,11.15
2019-06-10T19:37:40.510Z,10.72
2019-06-10T19:40:13.296Z,10.20
2019-06-10T19:42:45.118Z,10.25
2019-06-10T19:45:19.173Z,11.35
2019-06-10T19:47:52.263Z,10.38
2019-06-10T19:50:24.335Z,11.97
2019-06-10T19:52:56.206Z,10.50
2019-06-10T19:55:28.075Z,11.25
2019-06-10T19:57:59.934Z,11.48
2019-06-10T20:00:33.119Z,10.48
2019-06-10T20:03:05.476Z,11.12
2019-06-10T20:05:38.073Z,10.75
2019-06-10T20:08:12.143Z,10.88
2019-06-10T20:10:44.536Z,11.35
2019-06-10T20:13:16.517Z,11.40
2019-06-10T20:15:48.755Z,12.95
2019-06-10T20:18:22.668Z,11.57
2019-06-10T20:20:54.350Z,11.88
2019-06-10T20:23:26.254Z,11.18
2019-06-10T20:25:58.061Z,11.33
2019-06-10T20:28:31.994Z,10.90
2019-06-10T20:31:03.532Z,10.23
2019-06-10T20:33:38.562Z,10.70
2019-06-10T20:36:17.983Z,11.22
2019-06-10T20:38:48.182Z,10.95
2019-06-10T20:41:17.888Z,12.55
2019-06-10T20:43:55.114Z,11.10
2019-06-10T20:46:23.737Z,11.12
2019-06-10T20:48:55.648Z,11.60
2019-06-10T20:51:27.574Z,12.25
2019-06-10T20:53:59.302Z,14.45
2019-06-10T20:56:33.540Z,16.02
2019-06-10T20:59:04.658Z,16.57
2019-06-10T21:01:36.700Z,17.42
2019-06-10T21:04:08.813Z,17.42
2019-06-10T21:06:43.282Z,14.07
2019-06-10T21:09:16.162Z,15.35
2019-06-10T21:11:49.736Z,17.53
2019-06-10T21:14:22.932Z,15.73
2019-06-10T21:16:57.520Z,17.53
2019-06-10T21:19:29.234Z,18.53
2019-06-10T21:22:02.724Z,19.90
2019-06-10T21:24:34.680Z,19.80
2019-06-10T21:27:06.397Z,21.40
2019-06-10T21:29:38.102Z,21.03
2019-06-10T21:32:12.342Z,20.93
2019-06-10T21:34:44.819Z,22.73
2019-06-10T21:37:17.041Z,23.10
2019-06-10T21:39:49.589Z,22.80
2019-06-10T21:42:22.879Z,22.00
2019-06-10T21:44:54.768Z,21.33
2019-06-10T21:47:26.477Z,20.50
2019-06-10T21:49:58.284Z,20.83
2019-06-10T21:52:32.362Z,23.87
2019-06-10T21:55:03.754Z,22.87
2019-06-10T21:57:35.466Z,20.90
2019-06-10T22:00:14.042Z,21.37
2019-06-10T22:02:47.067Z,23.60
2019-06-10T22:05:19.146Z,24.93
2019-06-10T22:07:55.106Z,25.33
2019-06-10T22:10:24.605Z,26.90
2019-06-10T22:12:56.428Z,24.07
2019-06-10T22:15:28.117Z,23.03
2019-06-10T22:18:02.008Z,28.70
2019-06-10T22:20:33.443Z,29.90
2019-06-10T22:23:05.261Z,31.47
2019-06-10T22:25:36.972Z,30.47
2019-06-10T22:28:08.791Z,29.17
2019-06-10T22:30:43.097Z,31.23
2019-06-10T22:33:14.126Z,33.77
2019-06-10T22:35:45.940Z,32.17
2019-06-10T22:38:17.683Z,33.60
2019-06-10T22:40:49.491Z,42.58
2019-06-10T22:43:23.334Z,41.57
2019-06-10T22:45:55.948Z,38.13
2019-06-10T22:48:28.543Z,35.87
2019-06-10T22:51:00.341Z,38.53
2019-06-10T22:53:33.347Z,35.50
2019-06-10T22:56:05.265Z,36.53
2019-06-10T22:58:36.972Z,37.57
2019-06-10T23:01:08.665Z,38.27
2019-06-10T23:03:40.396Z,38.37
2019-06-10T23:06:12.613Z,44.25
2019-06-10T23:08:44.526Z,40.80
2019-06-10T23:11:16.226Z,38.87
2019-06-10T23:13:48.630Z,41.80
2019-06-10T23:16:22.280Z,37.53
2019-06-10T23:18:56.787Z,40.40
2019-06-10T23:21:27.796Z,42.17
2019-06-10T23:24:00.167Z,42.90
2019-06-10T23:26:33.380Z,47.63
2019-06-10T23:29:05.350Z,47.50
2019-06-10T23:31:49.695Z,46.80
2019-06-10T23:34:11.645Z,48.83
2019-06-10T23:36:44.510Z,47.90
2019-06-10T23:39:16.241Z,48.87
2019-06-10T23:41:47.943Z,48.67
2019-06-10T23:44:19.664Z,53.20
2019-06-10T23:46:51.373Z,46.63
2019-06-10T23:49:23.089Z,44.67
2019-06-10T23:51:56.011Z,51.93
2019-06-10T23:54:28.509Z,50.63
2019-06-10T23:57:01.448Z,47.57
2019-06-10T23:59:34.365Z,45.93
